createdAt,value
2023-07-26T00:00:44.376Z,101052.81
2023-07-26T00:04:46.438Z,101051.13
2023-07-26T00:08:48.332Z,101047.78
2023-07-26T00:12:50.198Z,101042.63
2023-07-26T00:16:52.129Z,101043.66
2023-07-26T00:20:54.036Z,101037.59
2023-07-26T00:24:56.110Z,101035.28
2023-07-26T00:28:58.083Z,101037.34
2023-07-26T00:33:00.029Z,101037.72
2023-07-26T00:37:05.287Z,101038.09
2023-07-26T00:41:08.753Z,101038.84
2023-07-26T00:45:11.053Z,101031.25
2023-07-26T00:49:13.073Z,101036.94
2023-07-26T00:53:15.593Z,101035.19
2023-07-26T00:57:17.757Z,101033.91
2023-07-26T01:01:19.795Z,101034.66
2023-07-26T01:05:24.275Z,101032.41
2023-07-26T01:09:40.463Z,101030.63
2023-07-26T01:13:53.182Z,101035.53
2023-07-26T01:18:12.615Z,101032.59
2023-07-26T01:22:15.419Z,101030.81
2023-07-26T01:26:17.353Z,101023.69
2023-07-26T01:30:19.936Z,101029.78
2023-07-26T01:34:22.083Z,101018.09
2023-07-26T01:38:26.098Z,101020.13
2023-07-26T01:42:28.378Z,101022.16
2023-07-26T01:46:30.356Z,101010.59
2023-07-26T01:50:33.754Z,101019.56
2023-07-26T01:54:35.569Z,101019.25
2023-07-26T01:58:37.476Z,101017.97
2023-07-26T02:02:39.502Z,101024.16
2023-07-26T02:06:41.419Z,101029.25
2023-07-26T02:10:43.530Z,101025.25
2023-07-26T02:14:45.412Z,101014.72
2023-07-26T02:18:47.263Z,101021.06
2023-07-26T02:22:49.269Z,101018.41
2023-07-26T02:26:51.149Z,101014.25
2023-07-26T02:30:53.072Z,101014.41
2023-07-26T02:34:54.976Z,101017.84
2023-07-26T02:38:56.900Z,101027.06
2023-07-26T02:42:58.799Z,101020.19
2023-07-26T02:47:00.674Z,101026.75
2023-07-26T02:51:02.713Z,101013.88
2023-07-26T02:55:05.293Z,101010.91
2023-07-26T02:59:07.272Z,101014.63
2023-07-26T03:03:09.295Z,101009.72
2023-07-26T03:07:11.263Z,101006.97
2023-07-26T03:11:13.842Z,101005.88
2023-07-26T03:15:15.861Z,101009.34
2023-07-26T03:19:17.727Z,101011.28
2023-07-26T03:23:19.809Z,101009.75
2023-07-26T03:27:24.363Z,101018.06
2023-07-26T03:31:26.580Z,101010.50
2023-07-26T03:35:30.581Z,101012.00
2023-07-26T03:39:32.816Z,101016.81
2023-07-26T03:43:34.725Z,101011.06
2023-07-26T03:47:36.595Z,101001.78
2023-07-26T03:51:38.566Z,100999.97
2023-07-26T03:55:40.451Z,100997.91
2023-07-26T03:59:42.266Z,100995.91
2023-07-26T04:03:44.760Z,100995.50
2023-07-26T04:07:46.723Z,101000.88
2023-07-26T04:11:48.620Z,100991.81
2023-07-26T04:15:50.505Z,100986.91
2023-07-26T04:19:53.292Z,100991.06
2023-07-26T04:23:55.173Z,100983.47
2023-07-26T04:27:57.076Z,100992.66
2023-07-26T04:31:58.991Z,101005.31
2023-07-26T04:36:00.903Z,100996.38
2023-07-26T04:40:02.921Z,101009.22
2023-07-26T04:44:04.995Z,101002.47
2023-07-26T04:48:06.924Z,100997.91
2023-07-26T04:52:08.961Z,100996.06
2023-07-26T04:56:11.383Z,101007.63
2023-07-26T05:00:13.938Z,101003.97
2023-07-26T05:04:15.856Z,100998.19
2023-07-26T05:08:18.173Z,100996.19
2023-07-26T05:12:20.048Z,100989.78
2023-07-26T05:16:21.956Z,100990.25
2023-07-26T05:20:24.100Z,101003.69
2023-07-26T05:24:26.008Z,101059.16
2023-07-26T05:28:27.924Z,101077.16
2023-07-26T05:32:29.944Z,101096.22
2023-07-26T05:36:31.833Z,101076.91
2023-07-26T05:40:34.401Z,101059.16
2023-07-26T05:44:36.429Z,101063.75
2023-07-26T05:48:38.319Z,101071.50
2023-07-26T05:52:42.430Z,101072.69
2023-07-26T05:56:45.407Z,101090.91
2023-07-26T06:00:47.328Z,101087.75
2023-07-26T06:04:49.340Z,101087.09
2023-07-26T06:08:52.381Z,101090.22
2023-07-26T06:12:54.359Z,101082.81
2023-07-26T06:16:56.566Z,101087.09
2023-07-26T06:20:58.537Z,101091.53
2023-07-26T06:25:00.567Z,101090.31
2023-07-26T06:29:02.542Z,101092.00
2023-07-26T06:33:04.569Z,101098.91
2023-07-26T06:37:06.624Z,101090.88
2023-07-26T06:41:08.689Z,101098.84
2023-07-26T06:45:11.148Z,101101.13
2023-07-26T06:49:13.141Z,101105.81
2023-07-26T06:53:15.013Z,101098.03
2023-07-26T06:57:16.967Z,101105.25
2023-07-26T07:01:19.060Z,101103.09
2023-07-26T07:05:21.348Z,101103.81
2023-07-26T07:09:23.238Z,101109.66
2023-07-26T07:13:25.077Z,101103.50
2023-07-26T07:17:26.954Z,101110.25
2023-07-26T07:21:29.131Z,101104.81
2023-07-26T07:25:31.066Z,101113.94
2023-07-26T07:29:36.126Z,101117.47
2023-07-26T07:33:38.844Z,101116.88
2023-07-26T07:37:40.706Z,101131.00
2023-07-26T07:41:42.604Z,101129.97
2023-07-26T07:45:44.650Z,101122.78
2023-07-26T07:49:48.291Z,101123.88
2023-07-26T07:53:50.364Z,101130.09
2023-07-26T07:57:52.378Z,101130.03
2023-07-26T08:01:54.365Z,101128.16
2023-07-26T08:05:56.242Z,101125.59
2023-07-26T08:09:58.231Z,101123.66
2023-07-26T08:14:00.220Z,101126.47
2023-07-26T08:18:06.304Z,101131.09
2023-07-26T08:22:08.481Z,101133.94
2023-07-26T08:26:10.842Z,101139.25
2023-07-26T08:30:13.002Z,101147.72
2023-07-26T08:34:14.997Z,101140.31
2023-07-26T08:38:17.233Z,101151.72
2023-07-26T08:42:19.094Z,101150.16
2023-07-26T08:46:21.858Z,101149.91
2023-07-26T08:50:24.329Z,101151.75
2023-07-26T08:54:26.265Z,101149.31
2023-07-26T08:58:28.337Z,101153.72
2023-07-26T09:02:31.360Z,101159.91
2023-07-26T09:06:41.471Z,101148.28
2023-07-26T09:10:44.040Z,101150.19
2023-07-26T09:14:45.988Z,101149.19
2023-07-26T09:19:01.930Z,101146.53
2023-07-26T09:23:06.938Z,101150.69
2023-07-26T09:27:10.779Z,101155.88
2023-07-26T09:31:12.820Z,101150.25
2023-07-26T09:35:14.783Z,101157.72
2023-07-26T09:39:18.715Z,101155.25
2023-07-26T09:43:34.275Z,101155.06
2023-07-26T09:47:40.519Z,101153.25
2023-07-26T09:52:13.869Z,101164.88
2023-07-26T09:56:05.780Z,101160.34
2023-07-26T10:00:08.968Z,101163.94
2023-07-26T10:04:17.373Z,101168.31
2023-07-26T10:08:21.158Z,101174.53
2023-07-26T10:12:27.487Z,101170.41
2023-07-26T10:16:29.786Z,101169.34
2023-07-26T10:20:32.707Z,101168.94
2023-07-26T10:24:37.651Z,101170.19
2023-07-26T10:28:40.302Z,101184.13
2023-07-26T10:32:51.411Z,101174.34
2023-07-26T10:36:54.209Z,101173.72
2023-07-26T10:40:56.095Z,101173.75
2023-07-26T10:45:03.615Z,101173.34
2023-07-26T10:49:27.677Z,101175.84
2023-07-26T10:53:30.767Z,101178.09
2023-07-26T10:57:33.595Z,101189.97
2023-07-26T11:01:45.404Z,101184.78
2023-07-26T11:05:56.808Z,101183.72
2023-07-26T11:10:17.594Z,101177.91
2023-07-26T11:14:19.546Z,101177.72
2023-07-26T11:18:22.120Z,101184.78
2023-07-26T11:22:23.977Z,101187.66
2023-07-26T11:26:26.390Z,101184.56
2023-07-26T11:30:28.295Z,101188.31
2023-07-26T11:34:30.776Z,101198.28
2023-07-26T11:38:32.759Z,101201.81
2023-07-26T11:42:34.837Z,101206.81
2023-07-26T11:46:37.298Z,101211.81
2023-07-26T11:50:41.048Z,101210.56
2023-07-26T11:55:02.274Z,101204.13
2023-07-26T11:59:04.920Z,101208.72
2023-07-26T12:03:08.335Z,101216.16
2023-07-26T12:07:13.557Z,101219.94
2023-07-26T12:11:20.231Z,101201.63
2023-07-26T12:15:22.369Z,101213.06
2023-07-26T12:19:25.816Z,101214.50
2023-07-26T12:23:30.256Z,101216.34
2023-07-26T12:27:35.770Z,101221.97
2023-07-26T12:31:40.911Z,101224.66
2023-07-26T12:35:46.783Z,101224.00
2023-07-26T12:39:50.750Z,101230.25
2023-07-26T12:43:55.217Z,101231.09
2023-07-26T12:47:57.169Z,101222.78
2023-07-26T12:52:00.844Z,101231.97
2023-07-26T12:56:02.896Z,101221.09
2023-07-26T13:00:05.351Z,101225.22
2023-07-26T13:04:08.507Z,101235.63
2023-07-26T13:08:11.045Z,101224.84
2023-07-26T13:12:13.042Z,101215.25
2023-07-26T13:16:14.971Z,101227.13
2023-07-26T13:20:17.481Z,101216.91
2023-07-26T13:24:19.510Z,101222.31
2023-07-26T13:28:21.542Z,101218.59
2023-07-26T13:32:23.491Z,101224.41
2023-07-26T13:36:25.408Z,101225.22
2023-07-26T13:40:27.550Z,101225.22
2023-07-26T13:44:29.490Z,101221.47
2023-07-26T13:48:31.327Z,101229.81
2023-07-26T13:52:33.239Z,101219.81
2023-07-26T13:56:35.347Z,101224.78
2023-07-26T14:00:37.498Z,101221.47
2023-07-26T14:04:39.447Z,101227.06
2023-07-26T14:08:41.553Z,101225.19
2023-07-26T14:12:43.379Z,101223.50
2023-07-26T14:16:45.762Z,101236.63
2023-07-26T14:20:47.783Z,101238.06
2023-07-26T14:24:49.714Z,101227.28
2023-07-26T14:28:51.593Z,101233.13
2023-07-26T14:32:53.425Z,101238.16
2023-07-26T14:36:55.459Z,101235.63
2023-07-26T14:40:57.434Z,101235.41
2023-07-26T14:44:59.287Z,101232.88
2023-07-26T14:49:01.163Z,101233.66
2023-07-26T14:53:03.024Z,101240.34
2023-07-26T14:57:11.433Z,101232.22
2023-07-26T15:01:14.214Z,101236.78
2023-07-26T15:05:19.175Z,101220.69
2023-07-26T15:09:21.141Z,101223.19
2023-07-26T15:13:23.054Z,101219.66
2023-07-26T15:17:24.989Z,101227.56
2023-07-26T15:21:26.917Z,101219.59
2023-07-26T15:25:28.828Z,101222.47
2023-07-26T15:29:30.763Z,101216.19
2023-07-26T15:33:32.692Z,101207.78
2023-07-26T15:37:34.619Z,101211.94
2023-07-26T15:49:57.066Z,101192.19
2023-07-26T15:53:59.323Z,101186.19
2023-07-26T15:58:01.324Z,101186.19
2023-07-26T16:02:03.288Z,101182.41
2023-07-26T16:10:10.269Z,101179.06
2023-07-26T16:18:17.095Z,101172.00
2023-07-26T16:22:19.140Z,101168.91
2023-07-26T16:26:20.957Z,101166.19
2023-07-26T16:30:22.839Z,101156.97
2023-07-26T16:34:24.905Z,101152.94
2023-07-26T16:38:26.799Z,101147.25
2023-07-26T16:42:28.834Z,101148.59
2023-07-26T16:46:47.160Z,101148.78
2023-07-26T16:50:52.595Z,101153.59
2023-07-26T16:54:54.498Z,101149.22
2023-07-26T16:58:56.356Z,101156.06
2023-07-26T17:02:58.427Z,101150.41
2023-07-26T17:07:00.412Z,101148.66
2023-07-26T17:11:02.415Z,101147.59
2023-07-26T17:15:04.680Z,101142.84
2023-07-26T17:19:06.570Z,101142.00
2023-07-26T17:23:08.488Z,101138.69
2023-07-26T17:27:10.441Z,101131.00
2023-07-26T17:31:12.394Z,101121.81
2023-07-26T17:35:14.366Z,101123.31
2023-07-26T17:39:16.290Z,101118.78
2023-07-26T17:43:18.212Z,101128.25
2023-07-26T17:47:21.714Z,101122.91
2023-07-26T17:51:23.570Z,101122.38
2023-07-26T17:55:25.797Z,101122.84
2023-07-26T17:59:27.657Z,101127.09
2023-07-26T18:03:29.839Z,101115.06
2023-07-26T18:07:32.429Z,101117.56
2023-07-26T18:11:34.324Z,101115.72
2023-07-26T18:15:36.779Z,101116.63
2023-07-26T18:19:38.756Z,101104.34
2023-07-26T18:23:42.488Z,101103.56
2023-07-26T18:27:44.836Z,101106.09
2023-07-26T18:31:46.910Z,101098.22
2023-07-26T18:35:48.865Z,101098.88
2023-07-26T18:39:50.880Z,101092.03
2023-07-26T18:43:52.815Z,101100.38
2023-07-26T18:47:55.115Z,101097.47
2023-07-26T18:51:57.081Z,101105.63
2023-07-26T18:55:59.019Z,101100.84
2023-07-26T19:00:01.660Z,101100.06
2023-07-26T19:04:03.696Z,101094.63
2023-07-26T19:08:09.135Z,101100.69
2023-07-26T19:12:11.104Z,101107.53
2023-07-26T19:16:13.345Z,101110.06
2023-07-26T19:20:15.337Z,101106.75
2023-07-26T19:24:17.202Z,101102.56
2023-07-26T19:28:19.249Z,101097.81
2023-07-26T19:32:21.382Z,101096.16
2023-07-26T19:36:23.335Z,101105.09
2023-07-26T19:40:25.239Z,101095.94
2023-07-26T19:44:27.184Z,101100.09
2023-07-26T19:48:29.088Z,101098.84
2023-07-26T19:52:30.918Z,101086.81
2023-07-26T19:56:32.743Z,101090.97
2023-07-26T20:00:34.660Z,101088.06
2023-07-26T20:04:37.082Z,101086.38
2023-07-26T20:08:39.089Z,101085.97
2023-07-26T20:12:40.985Z,101092.00
2023-07-26T20:16:45.776Z,101097.22
2023-07-26T20:20:50.558Z,101087.84
2023-07-26T20:24:52.966Z,101079.34
2023-07-26T20:28:54.808Z,101078.50
2023-07-26T20:32:56.787Z,101077.25
2023-07-26T20:36:59.066Z,101081.34
2023-07-26T20:41:00.949Z,101073.06
2023-07-26T20:45:03.098Z,101066.00
2023-07-26T20:49:05.247Z,101060.59
2023-07-26T20:53:07.170Z,101058.94
2023-07-26T20:57:09.127Z,101056.41
2023-07-26T21:01:11.059Z,101055.59
2023-07-26T21:05:12.973Z,101048.53
2023-07-26T21:09:14.893Z,101041.44
2023-07-26T21:13:16.864Z,101032.72
2023-07-26T21:17:18.976Z,101036.47
2023-07-26T21:21:22.781Z,101024.22
2023-07-26T21:25:24.613Z,101023.56
2023-07-26T21:29:26.879Z,101010.28
2023-07-26T21:33:29.686Z,101004.06
2023-07-26T21:37:31.606Z,100999.88
2023-07-26T21:41:33.710Z,101000.94
2023-07-26T21:45:35.551Z,101006.53
2023-07-26T21:49:37.392Z,100989.50
2023-07-26T21:53:39.248Z,100985.13
2023-07-26T21:57:41.266Z,100980.78
2023-07-26T22:01:43.602Z,100970.81
2023-07-26T22:05:49.063Z,100973.72
2023-07-26T22:09:50.991Z,100959.38
2023-07-26T22:13:53.779Z,100953.97
2023-07-26T22:17:55.637Z,100952.94
2023-07-26T22:21:57.555Z,100952.13
2023-07-26T22:26:11.634Z,100947.56
2023-07-26T22:30:16.915Z,100947.34
2023-07-26T22:34:18.783Z,100940.88
2023-07-26T22:38:21.028Z,100933.81
2023-07-26T22:42:22.829Z,100931.75
2023-07-26T22:46:24.992Z,100936.34
2023-07-26T22:50:26.950Z,100924.47
2023-07-26T22:54:28.826Z,100921.78
2023-07-26T22:58:30.683Z,100921.78
2023-07-26T23:02:32.628Z,100920.97
2023-07-26T23:06:34.945Z,100906.41
2023-07-26T23:10:36.991Z,100903.94
2023-07-26T23:14:38.924Z,100900.19
2023-07-26T23:18:40.888Z,100885.84
2023-07-26T23:22:42.787Z,100879.81
2023-07-26T23:26:44.605Z,100872.75
2023-07-26T23:30:51.854Z,100867.38
2023-07-26T23:34:53.678Z,100863.19
2023-07-26T23:38:55.501Z,100863.19
2023-07-26T23:42:57.351Z,100852.41
2023-07-26T23:46:59.189Z,100850.75
2023-07-26T23:51:01.211Z,100849.94
2023-07-26T23:55:03.059Z,100850.97
2023-07-26T23:59:05.010Z,100841.19
